Time;durP1;ratioP1;P1;durP2;ratioP2;P2;SDS_P1;SDS_P2;PMS_P1;PMS_P2;Temp;Humidity;BMP_temperature;BMP_pressure;BME280_temperature;BME280_humidity;BME280_pressure;Samples;Min_cycle;Max_cycle;Signal;HPM_P1;HPM_P2
2023/09/26 00:00:20;;;;;;;2.73;2.53;;;24.80;63.40;;;;;;5111607;28;20426;-79
2023/09/26 00:02:49;;;;;;;2.67;2.57;;;24.80;63.40;;;;;;5105286;28;20511;-80
2023/09/26 00:05:20;;;;;;;3.00;2.80;;;24.80;63.30;;;;;;5111545;28;20495;-80
2023/09/26 00:07:51;;;;;;;2.87;2.60;;;24.70;63.30;;;;;;5111112;28;20541;-80
2023/09/26 00:10:20;;;;;;;2.90;2.70;;;24.70;63.20;;;;;;5110939;28;21066;-79
2023/09/26 00:12:49;;;;;;;3.07;2.87;;;24.70;63.10;;;;;;5111142;28;20470;-80
2023/09/26 00:15:17;;;;;;;3.03;2.73;;;24.70;63.20;;;;;;5110088;28;20437;-79
2023/09/26 00:17:46;;;;;;;2.87;2.67;;;24.70;63.20;;;;;;5110813;28;20439;-80
2023/09/26 00:20:16;;;;;;;2.80;2.60;;;24.70;63.30;;;;;;5115537;28;20513;-80
2023/09/26 00:22:45;;;;;;;3.17;2.97;;;24.70;63.20;;;;;;5115014;28;20428;-79
2023/09/26 00:25:15;;;;;;;2.50;2.33;;;24.70;63.30;;;;;;5114870;28;20431;-79
2023/09/26 00:27:43;;;;;;;2.43;2.33;;;24.60;63.10;;;;;;5115331;28;20480;-78
2023/09/26 00:30:13;;;;;;;3.00;2.80;;;24.60;63.20;;;;;;5115108;28;20430;-80
2023/09/26 00:32:41;;;;;;;2.43;2.33;;;24.60;63.20;;;;;;5113881;28;20468;-80
2023/09/26 00:35:12;;;;;;;2.50;2.40;;;24.60;63.30;;;;;;5115017;28;20447;-80
2023/09/26 00:37:41;;;;;;;2.27;2.10;;;24.60;63.20;;;;;;5114353;28;20430;-80
2023/09/26 00:40:15;;;;;;;2.80;2.60;;;24.60;63.30;;;;;;5115313;28;20416;-80
2023/09/26 00:42:45;;;;;;;2.40;2.30;;;24.60;63.40;;;;;;5111541;28;20445;-80
2023/09/26 00:45:15;;;;;;;3.43;2.50;;;24.60;63.40;;;;;;5102925;28;20453;-80
2023/09/26 00:47:44;;;;;;;2.93;2.73;;;24.60;63.40;;;;;;5114429;28;20426;-80
2023/09/26 00:50:13;;;;;;;2.70;2.60;;;24.60;63.30;;;;;;5096377;28;20454;-80
2023/09/26 00:52:44;;;;;;;2.83;2.63;;;24.50;63.20;;;;;;5092584;28;20463;-80
2023/09/26 00:55:15;;;;;;;2.47;2.30;;;24.50;63.00;;;;;;5114750;28;20523;-80
2023/09/26 00:57:45;;;;;;;3.03;2.73;;;24.50;63.10;;;;;;5096142;28;20912;-79
2023/09/26 01:00:19;;;;;;;2.40;2.20;;;24.50;63.20;;;;;;5107821;27;20455;-80
2023/09/26 01:02:47;;;;;;;2.83;2.63;;;24.50;63.10;;;;;;5103496;28;20445;-81
2023/09/26 01:05:15;;;;;;;2.10;2.00;;;24.50;63.20;;;;;;5114023;28;20442;-80
2023/09/26 01:07:43;;;;;;;2.40;2.30;;;24.50;63.00;;;;;;5113947;28;20452;-78
2023/09/26 01:10:12;;;;;;;2.60;2.50;;;24.50;62.80;;;;;;5095246;28;20861;-81
2023/09/26 01:12:41;;;;;;;3.70;3.03;;;24.50;62.60;;;;;;5113482;28;20461;-80
2023/09/26 01:15:12;;;;;;;3.30;3.00;;;24.40;62.70;;;;;;5095186;28;20477;-77
2023/09/26 01:17:40;;;;;;;2.30;2.20;;;24.40;62.80;;;;;;5112405;28;20453;-80
2023/09/26 01:20:16;;;;;;;2.60;2.40;;;24.40;62.70;;;;;;5113722;28;20427;-80
2023/09/26 01:22:46;;;;;;;3.03;2.63;;;24.40;62.60;;;;;;5095184;28;20816;-80
2023/09/26 01:25:19;;;;;;;3.70;3.20;;;24.40;62.70;;;;;;5113694;28;20444;-81
2023/09/26 01:27:47;;;;;;;2.67;2.57;;;24.40;62.80;;;;;;5112787;28;20541;-80
2023/09/26 01:30:16;;;;;;;2.63;2.43;;;24.30;62.70;;;;;;5112580;27;20443;-81
2023/09/26 01:32:47;;;;;;;2.53;2.43;;;24.30;62.70;;;;;;5121692;27;20510;-81
2023/09/26 01:35:16;;;;;;;3.40;3.20;;;24.30;62.70;;;;;;5085857;28;21017;-81
2023/09/26 01:37:44;;;;;;;2.77;2.57;;;24.30;62.40;;;;;;5113643;28;20880;-80
2023/09/26 01:40:15;;;;;;;2.83;2.63;;;24.30;62.60;;;;;;5116604;27;20448;-81
2023/09/26 01:42:45;;;;;;;2.20;2.10;;;24.30;62.60;;;;;;5120816;27;20436;-80
2023/09/26 01:45:14;;;;;;;2.50;2.30;;;24.30;62.60;;;;;;5092664;28;20544;-77
2023/09/26 01:47:47;;;;;;;2.10;2.00;;;24.20;62.80;;;;;;5112912;28;20508;-80
2023/09/26 01:50:16;;;;;;;2.30;2.20;;;24.20;62.70;;;;;;5115167;27;20542;-80
2023/09/26 01:52:45;;;;;;;2.87;2.67;;;24.20;62.60;;;;;;5093901;27;20804;-80
2023/09/26 01:55:15;;;;;;;3.00;2.80;;;24.20;62.60;;;;;;5093907;28;20463;-79
2023/09/26 01:57:45;;;;;;;2.27;2.10;;;24.20;62.80;;;;;;5112855;28;20430;-80
2023/09/26 02:00:15;;;;;;;2.60;2.40;;;24.20;62.70;;;;;;5098034;27;20537;-80
2023/09/26 02:02:45;;;;;;;2.43;2.30;;;24.20;62.80;;;;;;5108617;27;20484;-79
2023/09/26 02:05:16;;;;;;;3.87;2.43;;;24.20;62.80;;;;;;5112002;28;20540;-79
2023/09/26 02:07:45;;;;;;;2.77;2.57;;;24.20;62.80;;;;;;5094668;28;20457;-79
2023/09/26 02:10:17;;;;;;;2.87;2.67;;;24.20;62.70;;;;;;5085792;27;20870;-78
2023/09/26 02:12:48;;;;;;;3.00;2.80;;;24.20;62.60;;;;;;5098230;28;20494;-79
2023/09/26 02:15:17;;;;;;;2.70;2.50;;;24.20;62.70;;;;;;5111893;28;20450;-78
2023/09/26 02:17:45;;;;;;;2.43;2.33;;;24.20;63.00;;;;;;5111943;28;20889;-79
2023/09/26 02:20:17;;;;;;;2.27;2.17;;;24.20;62.70;;;;;;5096461;27;20456;-79
2023/09/26 02:22:48;;;;;;;2.53;2.33;;;24.10;62.50;;;;;;5115822;27;20545;-80
2023/09/26 02:25:19;;;;;;;2.40;2.30;;;24.10;62.60;;;;;;5108654;27;20499;-76
2023/09/26 02:27:49;;;;;;;2.90;2.70;;;24.10;62.60;;;;;;5091760;28;20473;-79
2023/09/26 02:30:19;;;;;;;2.60;2.50;;;24.10;62.40;;;;;;5080738;27;20489;-77
2023/09/26 02:32:49;;;;;;;2.80;2.60;;;24.10;62.30;;;;;;5103602;28;21057;-79
2023/09/26 02:35:19;;;;;;;2.60;2.40;;;24.10;62.30;;;;;;5093313;28;20463;-79
2023/09/26 02:37:48;;;;;;;2.40;2.20;;;24.00;62.30;;;;;;5112148;28;20445;-80
2023/09/26 02:40:17;;;;;;;2.90;2.70;;;24.10;62.20;;;;;;5095780;27;20448;-80
2023/09/26 02:42:50;;;;;;;3.33;3.03;;;24.00;62.20;;;;;;5122803;27;20463;-80
2023/09/26 02:45:18;;;;;;;2.50;2.30;;;24.00;62.20;;;;;;5108151;28;20538;-79
2023/09/26 02:47:47;;;;;;;2.90;2.70;;;24.00;62.40;;;;;;5111464;28;20420;-79
2023/09/26 02:50:15;;;;;;;2.83;2.63;;;24.00;62.30;;;;;;5114114;27;20496;-79
2023/09/26 02:52:44;;;;;;;3.80;2.73;;;24.00;62.20;;;;;;5132717;27;20472;-79
2023/09/26 02:55:13;;;;;;;2.93;2.73;;;24.00;62.30;;;;;;5094361;28;20450;-78
2023/09/26 02:57:42;;;;;;;2.50;2.40;;;24.00;62.30;;;;;;5093349;28;20761;-80
2023/09/26 03:00:16;;;;;;;2.53;2.43;;;24.00;62.30;;;;;;5113341;27;20457;-80
2023/09/26 03:02:47;;;;;;;3.13;2.93;;;24.00;62.50;;;;;;5097814;28;20459;-80
2023/09/26 03:05:17;;;;;;;2.50;2.30;;;24.00;62.50;;;;;;5106366;28;20445;-78
2023/09/26 03:07:48;;;;;;;3.00;2.80;;;24.00;62.30;;;;;;5089342;28;20476;-79
2023/09/26 03:10:17;;;;;;;2.87;2.67;;;24.00;62.40;;;;;;5092342;28;20459;-76
2023/09/26 03:12:46;;;;;;;3.10;2.90;;;23.90;62.10;;;;;;5122331;27;20469;-80
2023/09/26 03:15:16;;;;;;;2.80;2.60;;;23.90;62.20;;;;;;5105183;28;20543;-80
2023/09/26 03:17:44;;;;;;;2.50;2.30;;;23.90;62.10;;;;;;5094953;28;20756;-79
2023/09/26 03:20:15;;;;;;;2.50;2.30;;;23.90;62.30;;;;;;5112472;28;20432;-79
2023/09/26 03:22:44;;;;;;;3.00;2.80;;;23.90;62.20;;;;;;5113546;27;20444;-80
2023/09/26 03:25:12;;;;;;;2.50;2.27;;;23.90;62.00;;;;;;5093193;28;20927;-79
2023/09/26 03:27:41;;;;;;;2.73;2.53;;;23.90;62.00;;;;;;5110450;28;20472;-79
2023/09/26 03:30:10;;;;;;;2.40;2.30;;;23.90;62.00;;;;;;5093224;27;20449;-80
2023/09/26 03:32:40;;;;;;;2.87;2.63;;;23.80;61.80;;;;;;5103278;28;20440;-80
2023/09/26 03:35:10;;;;;;;5.63;2.17;;;23.80;61.90;;;;;;5093032;28;20452;-79
2023/09/26 03:37:39;;;;;;;2.47;2.37;;;23.80;62.00;;;;;;5110469;28;20441;-79
2023/09/26 03:40:09;;;;;;;2.10;2.00;;;23.80;62.10;;;;;;5110963;28;21019;-80
2023/09/26 03:42:38;;;;;;;2.53;2.40;;;23.80;62.00;;;;;;5131771;28;20781;-79
2023/09/26 03:45:08;;;;;;;2.33;2.20;;;23.80;61.90;;;;;;5111426;28;20923;-79
2023/09/26 03:47:36;;;;;;;2.00;1.90;;;23.80;61.90;;;;;;5108210;28;20946;-81
2023/09/26 03:50:08;;;;;;;2.30;2.17;;;23.80;61.80;;;;;;5110626;28;20520;-81
2023/09/26 03:52:37;;;;;;;2.27;2.07;;;23.80;61.90;;;;;;5125795;27;20439;-81
2023/09/26 03:55:06;;;;;;;2.53;2.43;;;23.80;61.90;;;;;;5116159;27;20460;-80
2023/09/26 03:57:35;;;;;;;2.57;2.37;;;23.70;61.90;;;;;;5115302;28;20991;-80
2023/09/26 04:00:12;;;;;;;2.30;2.10;;;23.70;61.70;;;;;;5115160;28;20492;-79
2023/09/26 04:02:40;;;;;;;2.37;2.20;;;23.70;61.60;;;;;;5107000;27;20629;-80
2023/09/26 04:05:10;;;;;;;2.60;2.40;;;23.70;61.70;;;;;;5110330;28;20528;-81
2023/09/26 04:07:39;;;;;;;2.17;2.07;;;23.70;61.70;;;;;;5114405;28;20460;-81
2023/09/26 04:10:08;;;;;;;2.40;2.30;;;23.70;61.70;;;;;;5114426;28;20444;-82
2023/09/26 04:12:36;;;;;;;2.80;2.10;;;23.70;61.60;;;;;;5122374;27;20949;-81
2023/09/26 04:15:05;;;;;;;2.23;2.13;;;23.70;61.80;;;;;;5114417;28;20814;-81
2023/09/26 04:17:33;;;;;;;1.97;1.87;;;23.70;61.80;;;;;;5109553;28;20505;-80
2023/09/26 04:20:12;;;;;;;2.33;2.23;;;23.60;61.70;;;;;;5114067;28;20432;-81
2023/09/26 04:23:01;;;;;;;2.50;2.30;;;23.60;61.70;;;;;;5104251;27;20544;-81
2023/09/26 04:25:30;;;;;;;2.00;1.90;;;23.60;61.40;;;;;;5110465;28;20448;-80
2023/09/26 04:27:58;;;;;;;2.30;2.20;;;23.60;61.60;;;;;;5113225;28;21188;-79
2023/09/26 04:30:27;;;;;;;1.73;1.63;;;23.60;61.70;;;;;;5109968;28;20946;-79
2023/09/26 04:32:56;;;;;;;1.97;1.87;;;23.60;61.80;;;;;;5110060;27;20494;-79
2023/09/26 04:35:24;;;;;;;2.00;1.80;;;23.60;61.70;;;;;;5113517;28;20475;-80
2023/09/26 04:37:53;;;;;;;1.97;1.87;;;23.60;61.80;;;;;;5113735;28;20440;-81
2023/09/26 04:40:23;;;;;;;2.63;2.43;;;23.60;61.90;;;;;;5112716;28;20528;-78
2023/09/26 04:42:52;;;;;;;2.10;1.90;;;23.60;61.80;;;;;;5112398;27;20451;-78
2023/09/26 04:45:23;;;;;;;1.77;1.67;;;23.60;61.70;;;;;;5103244;28;20789;-80
2023/09/26 04:47:53;;;;;;;2.30;2.10;;;23.60;61.80;;;;;;5109701;28;20449;-81
2023/09/26 04:50:21;;;;;;;2.07;1.97;;;23.60;62.00;;;;;;5109442;28;20455;-81
2023/09/26 04:52:49;;;;;;;1.80;1.70;;;23.60;62.00;;;;;;5105454;27;20449;-81
2023/09/26 04:55:18;;;;;;;2.30;2.20;;;23.60;61.90;;;;;;5107859;28;20511;-80
2023/09/26 04:57:47;;;;;;;2.57;2.37;;;23.60;62.00;;;;;;5103481;28;20468;-80
2023/09/26 05:00:18;;;;;;;2.00;1.90;;;23.60;61.90;;;;;;5105903;28;20459;-76
2023/09/26 05:02:47;;;;;;;2.60;2.40;;;23.60;61.90;;;;;;5099367;28;20544;-82
2023/09/26 05:05:15;;;;;;;2.20;2.10;;;23.60;62.00;;;;;;5077604;27;20451;-82
2023/09/26 05:07:44;;;;;;;2.10;2.00;;;23.60;61.90;;;;;;5084549;28;20550;-84
2023/09/26 05:10:13;;;;;;;2.53;2.10;;;23.70;63.10;;;;;;5083944;28;20943;-83
2023/09/26 05:12:42;;;;;;;1.77;1.67;;;23.70;63.10;;;;;;5081105;28;20503;-82
2023/09/26 05:15:13;;;;;;;2.60;2.40;;;23.70;63.00;;;;;;5084156;28;20461;-83
2023/09/26 05:17:42;;;;;;;2.13;1.93;;;23.70;63.00;;;;;;5108620;27;20467;-82
2023/09/26 05:20:12;;;;;;;2.10;2.00;;;23.70;63.00;;;;;;5108260;28;20452;-78
2023/09/26 05:22:42;;;;;;;1.93;1.83;;;23.80;63.00;;;;;;5106989;28;20444;-83
2023/09/26 05:25:11;;;;;;;2.70;2.00;;;23.80;63.00;;;;;;5101837;28;20472;-80
2023/09/26 05:27:41;;;;;;;2.33;2.23;;;23.80;63.10;;;;;;5088010;28;20902;-82
2023/09/26 05:30:12;;;;;;;2.70;1.97;;;23.80;63.10;;;;;;5107602;27;20455;-82
2023/09/26 05:32:41;;;;;;;6.90;2.27;;;23.80;63.20;;;;;;5101957;28;20463;-82
2023/09/26 05:35:10;;;;;;;1.93;1.70;;;23.80;63.20;;;;;;5100488;28;20582;-83
2023/09/26 05:37:39;;;;;;;2.57;2.23;;;23.80;63.30;;;;;;5099281;28;20453;-80
2023/09/26 05:40:09;;;;;;;1.90;1.80;;;23.80;63.30;;;;;;5105075;28;20452;-83
2023/09/26 05:42:39;;;;;;;2.43;2.23;;;23.80;63.40;;;;;;5100060;28;20585;-78
2023/09/26 05:45:09;;;;;;;4.97;2.70;;;23.80;63.40;;;;;;5096731;28;21295;-77
2023/09/26 05:47:39;;;;;;;2.53;2.33;;;23.80;63.50;;;;;;5100160;27;20812;-82
2023/09/26 05:50:08;;;;;;;2.03;1.83;;;23.80;63.50;;;;;;5109820;28;20444;-81
2023/09/26 05:52:36;;;;;;;6.83;2.30;;;23.80;63.50;;;;;;5107620;28;20471;-77
2023/09/26 05:55:05;;;;;;;2.60;2.13;;;23.80;63.60;;;;;;5098794;28;20473;-80
2023/09/26 05:57:34;;;;;;;2.33;2.13;;;23.80;63.60;;;;;;5109060;27;21171;-81
2023/09/26 06:00:04;;;;;;;3.33;3.03;;;23.80;63.60;;;;;;5085474;27;20521;-80
2023/09/26 06:02:38;;;;;;;3.03;2.57;;;23.80;64.60;;;;;;5103297;27;20795;-82
2023/09/26 06:05:07;;;;;;;2.23;2.00;;;23.80;64.30;;;;;;5103812;27;20447;-80
2023/09/26 06:07:36;;;;;;;4.37;2.37;;;23.80;64.00;;;;;;5108705;27;20823;-82
2023/09/26 06:10:06;;;;;;;4.27;3.40;;;23.80;64.20;;;;;;5105448;28;20440;-83
2023/09/26 06:12:37;;;;;;;4.27;2.80;;;23.80;64.30;;;;;;5101966;27;20452;-83
2023/09/26 06:15:07;;;;;;;2.83;2.60;;;23.80;64.40;;;;;;5107486;28;20495;-83
2023/09/26 06:17:35;;;;;;;5.97;2.73;;;23.80;64.40;;;;;;5110224;27;20450;-84
2023/09/26 06:20:08;;;;;;;7.93;3.43;;;23.80;64.50;;;;;;5107103;28;20455;-82
2023/09/26 06:22:36;;;;;;;8.43;3.17;;;23.80;64.50;;;;;;5110910;28;20468;-81
2023/09/26 06:25:05;;;;;;;3.27;2.27;;;23.80;64.50;;;;;;5111682;28;20499;-82
2023/09/26 06:27:36;;;;;;;4.47;2.40;;;23.80;64.50;;;;;;5111122;28;20472;-82
2023/09/26 06:30:05;;;;;;;3.07;2.33;;;23.80;64.50;;;;;;5107295;28;20935;-79
2023/09/26 06:32:35;;;;;;;3.23;2.60;;;23.90;64.50;;;;;;5107391;28;21012;-79
2023/09/26 06:35:05;;;;;;;3.30;2.87;;;23.90;64.50;;;;;;5096021;28;20926;-80
2023/09/26 06:37:34;;;;;;;7.60;3.37;;;23.90;64.40;;;;;;5109737;28;20433;-81
2023/09/26 06:40:04;;;;;;;2.77;2.43;;;23.90;64.40;;;;;;5104661;28;20508;-84
2023/09/26 06:42:33;;;;;;;3.23;2.37;;;23.90;64.40;;;;;;5105814;28;20523;-74
2023/09/26 06:45:04;;;;;;;2.43;2.23;;;23.90;64.40;;;;;;5102333;28;20558;-70
2023/09/26 06:47:34;;;;;;;3.20;3.00;;;23.90;64.60;;;;;;5108692;28;20488;-71
2023/09/26 06:50:02;;;;;;;2.93;2.73;;;23.90;64.60;;;;;;5108860;28;20447;-71
2023/09/26 06:52:33;;;;;;;3.10;2.70;;;23.90;64.60;;;;;;5109103;28;20441;-72
2023/09/26 06:55:02;;;;;;;3.30;3.00;;;23.90;64.60;;;;;;5104703;28;20469;-71
2023/09/26 06:57:31;;;;;;;2.40;2.20;;;24.00;64.80;;;;;;5104942;28;20458;-71
2023/09/26 07:00:00;;;;;;;5.20;2.83;;;24.00;64.80;;;;;;5106421;28;20449;-72
2023/09/26 07:02:29;;;;;;;2.53;2.33;;;24.00;64.80;;;;;;5107998;28;21040;-71
2023/09/26 07:04:57;;;;;;;4.33;2.60;;;24.00;64.80;;;;;;5105694;28;20447;-71
2023/09/26 07:07:30;;;;;;;2.83;2.00;;;24.10;64.80;;;;;;5087223;28;20792;-71
2023/09/26 07:09:59;;;;;;;2.90;2.37;;;24.10;64.80;;;;;;5105156;28;20437;-71
2023/09/26 07:12:28;;;;;;;3.50;2.10;;;24.10;64.80;;;;;;5109273;28;20446;-72
2023/09/26 07:14:56;;;;;;;5.27;2.30;;;24.20;64.80;;;;;;5084564;28;20798;-72
2023/09/26 07:17:24;;;;;;;3.73;2.50;;;24.20;64.80;;;;;;5109969;27;20463;-71
2023/09/26 07:19:53;;;;;;;2.70;2.50;;;24.20;64.80;;;;;;5110419;28;20476;-71
2023/09/26 07:22:21;;;;;;;2.07;1.97;;;24.30;64.80;;;;;;5110010;27;20921;-71
2023/09/26 07:24:50;;;;;;;2.70;2.50;;;24.30;64.70;;;;;;5110697;28;20555;-72
2023/09/26 07:27:20;;;;;;;2.60;2.40;;;24.40;64.70;;;;;;5109638;28;20504;-72
2023/09/26 07:29:48;;;;;;;3.50;2.17;;;24.40;64.60;;;;;;5109694;28;20467;-72
2023/09/26 07:32:17;;;;;;;3.20;2.90;;;24.40;64.60;;;;;;5108929;28;20442;-72
2023/09/26 07:34:45;;;;;;;5.70;3.03;;;24.40;64.60;;;;;;5110175;28;20783;-72
2023/09/26 07:37:13;;;;;;;2.10;2.00;;;24.40;64.50;;;;;;5109876;28;20476;-72
2023/09/26 07:39:44;;;;;;;2.37;2.20;;;24.50;64.50;;;;;;5108882;28;20437;-71
2023/09/26 07:42:12;;;;;;;3.27;2.07;;;24.50;64.50;;;;;;5107986;28;20448;-71
2023/09/26 07:44:42;;;;;;;2.93;2.40;;;24.50;64.50;;;;;;5109573;28;20443;-71
2023/09/26 07:47:10;;;;;;;3.20;2.03;;;24.50;64.40;;;;;;5108882;28;20787;-72
2023/09/26 07:49:40;;;;;;;2.27;2.17;;;24.50;64.40;;;;;;5110218;28;20522;-71
2023/09/26 07:52:08;;;;;;;2.67;2.23;;;24.60;64.40;;;;;;5110433;28;20438;-70
2023/09/26 07:54:36;;;;;;;2.43;2.17;;;24.60;64.40;;;;;;5109132;28;20544;-71
2023/09/26 07:57:04;;;;;;;3.20;2.17;;;24.60;64.40;;;;;;5105816;28;20523;-70
2023/09/26 07:59:34;;;;;;;2.40;2.20;;;24.60;64.40;;;;;;5110286;28;20542;-73
2023/09/26 08:02:03;;;;;;;6.70;2.20;;;24.60;64.30;;;;;;5108235;28;20437;-73
2023/09/26 08:04:31;;;;;;;1.97;1.87;;;24.60;64.30;;;;;;5105686;28;20931;-72
2023/09/26 08:07:00;;;;;;;3.20;2.33;;;24.70;64.30;;;;;;5109936;28;20441;-72
2023/09/26 08:09:28;;;;;;;3.30;2.50;;;24.70;64.30;;;;;;5109896;28;20510;-71
2023/09/26 08:11:56;;;;;;;2.30;2.10;;;24.70;64.20;;;;;;5089688;28;20679;-71
2023/09/26 08:14:25;;;;;;;4.93;3.67;;;24.70;64.30;;;;;;5094963;28;20490;-73
2023/09/26 08:16:53;;;;;;;2.10;1.93;;;24.70;64.30;;;;;;5104514;28;20479;-73
2023/09/26 08:19:23;;;;;;;2.17;1.97;;;24.70;64.20;;;;;;5106200;28;20448;-73
2023/09/26 08:21:51;;;;;;;2.90;2.30;;;24.70;64.10;;;;;;5109681;28;20439;-73
2023/09/26 08:24:19;;;;;;;2.80;2.37;;;24.80;64.10;;;;;;5108724;28;20954;-76
2023/09/26 08:26:48;;;;;;;3.70;2.10;;;24.80;64.00;;;;;;5109145;28;20446;-76
2023/09/26 08:29:16;;;;;;;2.40;1.90;;;24.80;63.80;;;;;;5109877;28;20986;-71
2023/09/26 08:31:45;;;;;;;3.00;2.67;;;24.80;63.80;;;;;;5108715;28;20969;-72
2023/09/26 08:34:13;;;;;;;2.30;2.10;;;24.80;64.00;;;;;;5109724;28;20436;-71
2023/09/26 08:36:42;;;;;;;2.37;2.17;;;24.80;64.10;;;;;;5098452;28;20473;-71
2023/09/26 08:39:11;;;;;;;2.53;2.30;;;24.80;64.20;;;;;;5108216;28;20932;-71
2023/09/26 08:41:39;;;;;;;2.60;2.40;;;24.80;64.20;;;;;;5113707;28;20857;-71
2023/09/26 08:44:08;;;;;;;1.87;1.77;;;24.80;64.20;;;;;;5112590;27;20514;-71
2023/09/26 08:46:37;;;;;;;2.37;1.93;;;24.90;64.20;;;;;;5112765;27;20443;-71
2023/09/26 08:49:06;;;;;;;2.10;2.00;;;24.90;64.20;;;;;;5085444;28;20485;-71
2023/09/26 08:51:35;;;;;;;2.50;2.30;;;24.90;64.20;;;;;;5111954;28;20450;-71
2023/09/26 08:54:04;;;;;;;2.63;2.00;;;24.90;64.10;;;;;;5111794;28;21319;-71
2023/09/26 08:56:33;;;;;;;2.73;2.03;;;24.90;64.20;;;;;;5111997;28;20477;-71
2023/09/26 08:59:03;;;;;;;2.23;2.03;;;24.90;64.20;;;;;;5112040;28;20486;-72
2023/09/26 09:01:31;;;;;;;2.37;1.90;;;25.00;64.20;;;;;;5109439;27;20441;-71
2023/09/26 09:04:00;;;;;;;2.80;2.40;;;25.00;64.20;;;;;;5112511;28;20436;-71
2023/09/26 09:06:28;;;;;;;2.50;2.30;;;25.00;64.30;;;;;;5112264;28;20439;-71
2023/09/26 09:09:13;;;;;;;3.00;1.70;;;25.00;64.20;;;;;;5112827;28;20438;-71
2023/09/26 09:11:41;;;;;;;3.00;2.13;;;25.00;64.20;;;;;;5111297;27;20939;-71
2023/09/26 09:14:09;;;;;;;2.80;2.30;;;25.00;64.20;;;;;;5112963;27;20985;-71
2023/09/26 09:16:37;;;;;;;1.83;1.73;;;25.00;64.20;;;;;;5109276;28;20466;-70
2023/09/26 09:19:06;;;;;;;4.00;2.10;;;25.10;64.10;;;;;;5113022;28;20495;-71
2023/09/26 09:21:34;;;;;;;2.63;2.43;;;25.10;64.10;;;;;;5112159;28;20935;-72
2023/09/26 09:24:04;;;;;;;2.27;2.17;;;25.10;64.10;;;;;;5112411;28;20963;-71
2023/09/26 09:26:35;;;;;;;2.20;1.93;;;25.10;64.10;;;;;;5115486;27;20516;-71
2023/09/26 09:29:21;;;;;;;2.63;2.43;;;25.10;64.00;;;;;;5110837;28;20469;-71
2023/09/26 09:31:51;;;;;;;1.87;1.77;;;25.10;64.10;;;;;;5110308;28;20442;-71
2023/09/26 09:34:22;;;;;;;3.47;2.10;;;25.20;64.00;;;;;;5112453;28;20525;-72
2023/09/26 09:36:51;;;;;;;2.17;1.70;;;25.20;64.00;;;;;;5111843;28;20469;-71
2023/09/26 09:39:22;;;;;;;2.30;2.10;;;25.20;64.00;;;;;;5110735;27;20439;-71
2023/09/26 09:41:57;;;;;;;2.80;2.57;;;25.20;64.00;;;;;;5112061;28;21299;-71
2023/09/26 09:44:26;;;;;;;2.30;2.10;;;25.20;63.90;;;;;;5111040;28;20434;-70
2023/09/26 09:47:02;;;;;;;4.47;2.20;;;25.20;63.90;;;;;;5111385;28;20443;-71
2023/09/26 09:49:33;;;;;;;2.17;2.07;;;25.30;63.90;;;;;;5112075;28;20436;-70
2023/09/26 09:52:05;;;;;;;2.40;1.90;;;25.30;63.90;;;;;;5110956;28;20562;-71
2023/09/26 09:54:37;;;;;;;2.93;1.90;;;25.30;63.90;;;;;;5112385;28;20438;-71
2023/09/26 09:57:10;;;;;;;2.27;2.07;;;25.30;63.90;;;;;;5105243;28;20469;-72
2023/09/26 09:59:39;;;;;;;3.30;2.70;;;25.30;63.90;;;;;;5111797;28;20436;-69
2023/09/26 10:02:09;;;;;;;2.03;1.77;;;25.30;64.00;;;;;;5110842;28;20520;-72
2023/09/26 10:04:38;;;;;;;2.10;2.00;;;25.30;64.00;;;;;;5091808;28;20842;-71
2023/09/26 10:07:09;;;;;;;2.23;2.03;;;25.30;63.90;;;;;;5111058;28;20454;-71
2023/09/26 10:09:39;;;;;;;2.17;2.07;;;25.30;63.90;;;;;;5108157;28;20439;-71
2023/09/26 10:12:10;;;;;;;1.93;1.83;;;25.30;64.00;;;;;;5108580;27;20447;-71
2023/09/26 10:14:38;;;;;;;2.37;2.17;;;25.30;64.00;;;;;;5112431;27;20496;-71
2023/09/26 10:17:07;;;;;;;3.00;2.23;;;25.30;64.00;;;;;;5110245;28;20817;-71
2023/09/26 10:19:35;;;;;;;2.80;2.60;;;25.30;64.10;;;;;;5110891;28;20449;-70
2023/09/26 10:22:33;;;;;;;1.90;1.80;;;25.30;64.10;;;;;;5108383;28;20542;-71
2023/09/26 10:25:02;;;;;;;2.20;2.00;;;25.30;64.10;;;;;;5111781;28;20435;-72
2023/09/26 10:27:45;;;;;;;2.23;2.03;;;25.30;64.20;;;;;;5110699;28;20468;-72
2023/09/26 10:30:28;;;;;;;2.20;2.10;;;25.30;64.20;;;;;;5109656;28;20439;-78
2023/09/26 10:32:57;;;;;;;2.70;2.50;;;25.30;63.90;;;;;;5109695;28;20931;-80
2023/09/26 10:35:28;;;;;;;2.67;2.00;;;25.30;63.90;;;;;;5111014;28;20528;-79
2023/09/26 10:38:07;;;;;;;2.50;2.30;;;25.40;63.80;;;;;;5111131;28;20467;-79
2023/09/26 10:40:35;;;;;;;2.40;2.20;;;25.40;63.80;;;;;;5107541;28;20443;-83
2023/09/26 10:43:06;;;;;;;2.17;2.07;;;25.50;63.40;;;;;;5111188;28;20438;-83
2023/09/26 10:45:37;;;;;;;2.97;2.20;;;25.60;63.30;;;;;;5087824;28;20454;-78
2023/09/26 10:48:07;;;;;;;2.23;2.00;;;25.70;63.00;;;;;;5092970;28;20439;-83
2023/09/26 10:50:38;;;;;;;2.37;2.17;;;25.90;62.70;;;;;;5110784;28;20957;-83
2023/09/26 10:53:07;;;;;;;2.20;2.00;;;26.10;62.40;;;;;;5108036;28;20457;-84
2023/09/26 10:55:36;;;;;;;2.70;2.50;;;26.20;62.00;;;;;;5107519;28;20489;-78
2023/09/26 10:58:06;;;;;;;2.60;2.40;;;26.40;61.70;;;;;;5106814;28;20464;-80
2023/09/26 11:00:34;;;;;;;1.97;1.57;;;26.50;61.30;;;;;;5106007;27;20467;-78
2023/09/26 11:03:03;;;;;;;2.40;2.20;;;26.60;61.30;;;;;;5103220;28;20451;-79
2023/09/26 11:05:32;;;;;;;2.70;2.00;;;26.80;60.90;;;;;;5108176;28;20468;-79
2023/09/26 11:08:01;;;;;;;2.57;2.30;;;26.90;60.50;;;;;;5101885;28;20526;-82
2023/09/26 11:10:31;;;;;;;2.60;2.10;;;27.10;60.00;;;;;;5106589;27;20465;-82
2023/09/26 11:12:59;;;;;;;2.30;2.13;;;27.20;59.70;;;;;;5113800;27;20470;-81
2023/09/26 11:15:31;;;;;;;1.80;1.67;;;27.30;59.50;;;;;;5086715;28;20460;-80
2023/09/26 11:17:59;;;;;;;2.60;2.07;;;27.30;59.40;;;;;;5108104;28;20569;-81
2023/09/26 11:20:28;;;;;;;2.40;2.20;;;27.40;59.20;;;;;;5104294;28;20481;-81
2023/09/26 11:22:56;;;;;;;3.00;2.80;;;27.40;59.10;;;;;;5101613;28;20503;-82
2023/09/26 11:25:25;;;;;;;2.43;2.10;;;27.40;59.10;;;;;;5110553;27;20447;-82
2023/09/26 11:27:53;;;;;;;1.73;1.63;;;27.40;59.10;;;;;;5104609;28;20512;-82
2023/09/26 11:30:23;;;;;;;2.97;2.30;;;27.50;59.10;;;;;;5109292;28;20449;-76
2023/09/26 11:32:54;;;;;;;1.93;1.83;;;27.40;59.20;;;;;;5098620;28;20465;-81
2023/09/26 11:35:26;;;;;;;2.23;2.13;;;27.30;59.40;;;;;;5100983;28;20454;-76
2023/09/26 11:37:55;;;;;;;2.30;2.20;;;27.30;59.50;;;;;;5100447;28;20466;-81
2023/09/26 11:40:26;;;;;;;2.50;2.30;;;27.30;59.50;;;;;;5103678;28;20447;-81
2023/09/26 11:42:56;;;;;;;2.20;2.10;;;27.30;59.60;;;;;;5088848;28;21425;-81
2023/09/26 11:45:26;;;;;;;2.30;2.10;;;27.20;59.70;;;;;;5097805;28;20524;-81
2023/09/26 11:47:56;;;;;;;2.47;2.27;;;27.20;59.70;;;;;;5093413;28;20458;-78
2023/09/26 11:50:26;;;;;;;1.90;1.80;;;27.20;59.70;;;;;;5093083;28;20767;-81
2023/09/26 11:52:57;;;;;;;2.33;2.23;;;27.20;59.70;;;;;;5094840;28;20468;-79
2023/09/26 11:55:26;;;;;;;3.47;2.33;;;27.20;59.70;;;;;;5094040;28;20460;-79
2023/09/26 11:57:54;;;;;;;2.90;2.57;;;27.30;59.70;;;;;;5096789;28;20460;-79
2023/09/26 12:00:23;;;;;;;2.33;2.13;;;27.30;59.70;;;;;;5097396;28;20447;-82
2023/09/26 12:02:52;;;;;;;2.03;1.90;;;27.30;59.60;;;;;;5097891;28;20483;-83
2023/09/26 12:05:23;;;;;;;2.47;2.30;;;27.30;59.60;;;;;;5094923;28;20972;-74
2023/09/26 12:07:51;;;;;;;11.80;3.40;;;27.30;59.70;;;;;;5101209;28;20544;-73
2023/09/26 12:10:20;;;;;;;12.87;3.60;;;27.40;59.60;;;;;;5100727;28;20453;-73
2023/09/26 12:12:49;;;;;;;13.23;3.20;;;27.50;59.50;;;;;;5099337;28;20963;-73
2023/09/26 12:15:19;;;;;;;6.17;2.60;;;27.50;59.40;;;;;;5102834;28;20844;-73
2023/09/26 12:17:48;;;;;;;7.23;2.87;;;27.50;59.40;;;;;;5101766;28;20477;-72
2023/09/26 12:20:21;;;;;;;2.80;2.50;;;27.50;59.40;;;;;;5104301;28;20460;-72
2023/09/26 12:22:52;;;;;;;3.83;2.50;;;27.50;59.30;;;;;;5101301;27;20490;-74
2023/09/26 12:25:25;;;;;;;6.47;3.00;;;27.50;59.40;;;;;;5101488;27;20451;-74
2023/09/26 12:27:54;;;;;;;2.90;2.70;;;27.50;59.40;;;;;;5095439;27;20548;-74
2023/09/26 12:30:22;;;;;;;7.63;3.03;;;27.50;59.40;;;;;;5094789;27;20480;-74
2023/09/26 12:32:51;;;;;;;4.43;2.70;;;27.50;59.50;;;;;;5104397;27;20462;-75
2023/09/26 12:35:22;;;;;;;2.70;2.47;;;27.50;59.50;;;;;;5084720;28;20454;-73
2023/09/26 12:37:52;;;;;;;4.30;2.93;;;27.50;59.60;;;;;;5100112;27;20440;-73
2023/09/26 12:40:21;;;;;;;2.17;2.07;;;27.40;59.60;;;;;;5101628;28;20448;-74
2023/09/26 12:42:49;;;;;;;7.80;2.60;;;27.40;59.60;;;;;;5098464;28;20803;-74
2023/09/26 12:45:18;;;;;;;2.50;2.30;;;27.40;59.60;;;;;;5103639;28;20462;-74
2023/09/26 12:47:46;;;;;;;3.77;2.73;;;27.50;59.60;;;;;;5106025;28;20459;-74
2023/09/26 12:50:15;;;;;;;3.40;3.10;;;27.50;59.60;;;;;;5104342;28;20463;-73
2023/09/26 12:52:43;;;;;;;3.50;3.13;;;27.50;59.60;;;;;;5105068;28;20470;-74
2023/09/26 12:55:13;;;;;;;4.33;3.20;;;27.40;59.60;;;;;;5110981;28;20456;-73
2023/09/26 12:57:41;;;;;;;4.17;2.50;;;27.40;59.60;;;;;;5111703;27;20442;-73